Weather at Leos Landing Seaplane Base

Public forecast

Using degrees Fahrenheit for public forecast. Weather courtesy of forecast.io.

Closest aviation weather report (METAR) to Leos Landing Seaplane Base

Closest report is Crystal Airport, 7.3 nm (13.5 km) S.

2024/07/25 08:53 (retrieved 30 minutes ago)

KMIC 250853Z AUTO 00000KT 9SM CLR 14/13 A3020 RMK AO2 SLP226 T01440133 56003

Closest aviation forecast (TAF) to Leos Landing Seaplane Base

Closest forecast is Minneapolis–Saint Paul International Airport / Wold–Chamberlain Field, 19.3 nm (35.8 km) SSE.

2024/07/25 09:00 Ammendment (retrieved 23 minutes ago)

TAF AMD KMSP 250857Z 2509/2612 11004KT P6SM SKC FM251600 15009KT P6SM FEW050 FM260100 15008KT P6SM SKC